Time;durP1;ratioP1;P1;durP2;ratioP2;P2;SDS_P1;SDS_P2;PMS_P1;PMS_P2;Temp;Humidity;BMP_temperature;BMP_pressure;BME280_temperature;BME280_humidity;BME280_pressure;Samples;Min_cycle;Max_cycle;Signal;HPM_P1;HPM_P2
2022/09/03 00:00:26;;;;;;;6.83;2.53;;;16.00;99.90;;;;;;5024055;28;20436;-68
2022/09/03 00:03:03;;;;;;;2.53;2.33;;;16.00;99.90;;;;;;5029866;28;20473;-68
2022/09/03 00:05:38;;;;;;;2.77;2.50;;;16.10;99.90;;;;;;5029289;28;20886;-67
2022/09/03 00:08:10;;;;;;;2.77;1.70;;;16.20;99.90;;;;;;5029957;28;20494;-69
2022/09/03 00:10:46;;;;;;;2.47;2.27;;;16.20;99.90;;;;;;5030158;28;20782;-70
2022/09/03 00:13:17;;;;;;;2.90;1.80;;;16.40;99.90;;;;;;5030205;28;20606;-70
2022/09/03 00:15:44;;;;;;;2.20;2.00;;;16.40;99.90;;;;;;5030954;28;20436;-70
2022/09/03 00:18:17;;;;;;;1.97;1.77;;;16.50;99.90;;;;;;5031206;28;20459;-69
2022/09/03 00:20:50;;;;;;;2.77;1.90;;;16.60;99.90;;;;;;5031060;28;20433;-69
2022/09/03 00:23:21;;;;;;;2.97;1.67;;;16.70;99.90;;;;;;5030668;28;20464;-69
2022/09/03 00:25:54;;;;;;;1.80;1.70;;;16.80;99.90;;;;;;5030985;28;20428;-69
2022/09/03 00:28:29;;;;;;;3.00;2.17;;;16.80;99.90;;;;;;5030815;28;20922;-69
2022/09/03 00:31:08;;;;;;;2.00;1.90;;;16.90;99.90;;;;;;5030774;28;20535;-69
2022/09/03 00:33:41;;;;;;;2.17;1.97;;;16.90;99.90;;;;;;5029372;28;20469;-70
2022/09/03 00:36:14;;;;;;;2.30;2.10;;;16.90;99.90;;;;;;5030607;28;20528;-69
2022/09/03 00:38:41;;;;;;;2.10;2.00;;;16.90;99.90;;;;;;5030474;28;20480;-69
2022/09/03 00:41:19;;;;;;;2.20;2.00;;;16.90;99.90;;;;;;5030513;28;20467;-69
2022/09/03 00:44:04;;;;;;;2.77;2.13;;;17.00;99.90;;;;;;5030034;28;20469;-69
2022/09/03 00:46:40;;;;;;;2.10;1.90;;;17.00;99.90;;;;;;5030370;28;20441;-70
2022/09/03 00:49:28;;;;;;;2.57;2.00;;;17.10;99.90;;;;;;5030363;28;20603;-69
2022/09/03 00:52:02;;;;;;;2.33;2.10;;;17.20;99.90;;;;;;5030016;28;20446;-69
2022/09/03 00:54:39;;;;;;;2.30;1.83;;;17.20;99.90;;;;;;5030114;28;20473;-69
2022/09/03 00:57:24;;;;;;;2.63;1.90;;;17.20;99.90;;;;;;5030439;28;20441;-69
2022/09/03 00:59:59;;;;;;;2.50;1.87;;;17.20;99.90;;;;;;5030385;28;20855;-70
2022/09/03 01:02:32;;;;;;;2.17;1.97;;;17.20;99.90;;;;;;5029833;28;20455;-70
2022/09/03 01:05:09;;;;;;;3.23;2.43;;;17.20;99.90;;;;;;5030481;28;20440;-70
2022/09/03 01:07:45;;;;;;;2.10;1.80;;;17.20;99.90;;;;;;5030299;28;20451;-69
2022/09/03 01:10:21;;;;;;;1.70;1.60;;;17.20;99.90;;;;;;5030405;28;20429;-69
2022/09/03 01:12:57;;;;;;;3.27;1.80;;;17.30;99.90;;;;;;5029777;28;20465;-69
2022/09/03 01:15:32;;;;;;;2.60;1.73;;;17.30;99.90;;;;;;5030127;28;20970;-70
2022/09/03 01:18:12;;;;;;;2.30;2.10;;;17.30;99.90;;;;;;5029363;28;20447;-70
2022/09/03 01:20:52;;;;;;;2.30;2.10;;;17.30;99.90;;;;;;5030224;28;20488;-69
2022/09/03 01:23:42;;;;;;;4.63;2.00;;;17.30;99.90;;;;;;5029552;28;20468;-70
2022/09/03 01:26:23;;;;;;;2.70;1.90;;;17.30;99.90;;;;;;5029886;28;20951;-69
2022/09/03 01:29:06;;;;;;;2.67;1.97;;;17.30;99.90;;;;;;5029863;28;20440;-70
2022/09/03 01:31:39;;;;;;;2.13;1.97;;;17.40;99.90;;;;;;5030110;28;20935;-70
2022/09/03 01:34:16;;;;;;;2.20;2.07;;;17.40;99.90;;;;;;5029395;28;20461;-69
2022/09/03 01:36:51;;;;;;;2.30;2.10;;;17.40;99.90;;;;;;5030102;28;20450;-70
2022/09/03 01:39:27;;;;;;;1.90;1.60;;;17.50;99.90;;;;;;5029931;28;20480;-69
2022/09/03 01:42:14;;;;;;;2.77;1.93;;;17.50;99.90;;;;;;5029610;28;20811;-69
2022/09/03 01:44:56;;;;;;;3.30;2.60;;;17.40;99.90;;;;;;5030055;28;20461;-70
2022/09/03 01:47:32;;;;;;;2.43;2.23;;;17.30;99.90;;;;;;5029970;28;20840;-70
2022/09/03 01:50:06;;;;;;;2.53;2.00;;;17.40;99.90;;;;;;5029861;28;20464;-69
2022/09/03 01:52:43;;;;;;;2.30;2.10;;;17.30;99.90;;;;;;5029434;28;20471;-68
2022/09/03 01:55:24;;;;;;;2.70;2.50;;;17.30;99.90;;;;;;5029664;28;20455;-69
2022/09/03 01:57:56;;;;;;;3.40;2.50;;;17.40;99.90;;;;;;5030145;28;20440;-69
2022/09/03 02:00:26;;;;;;;2.33;2.13;;;17.30;99.90;;;;;;5029807;28;20485;-68
2022/09/03 02:02:54;;;;;;;2.43;2.23;;;17.20;99.90;;;;;;5029709;28;20489;-68
2022/09/03 02:05:23;;;;;;;4.43;2.23;;;17.20;99.90;;;;;;5029603;28;20803;-69
2022/09/03 02:07:55;;;;;;;2.70;2.43;;;17.20;99.90;;;;;;5029612;28;20958;-70
2022/09/03 02:10:28;;;;;;;2.90;1.97;;;17.30;99.90;;;;;;5029749;28;20433;-70
2022/09/03 02:12:58;;;;;;;2.70;2.10;;;17.20;99.90;;;;;;5029241;28;20464;-68
2022/09/03 02:15:27;;;;;;;2.17;1.97;;;17.30;99.90;;;;;;5029486;28;20436;-68
2022/09/03 02:17:58;;;;;;;2.40;1.70;;;17.20;99.90;;;;;;5029688;28;20523;-70
2022/09/03 02:20:28;;;;;;;2.10;1.90;;;17.20;99.90;;;;;;5029438;28;20484;-69
2022/09/03 02:22:57;;;;;;;2.40;2.03;;;17.20;99.90;;;;;;5029168;28;20828;-69
2022/09/03 02:25:30;;;;;;;2.63;2.10;;;17.30;99.90;;;;;;5029663;28;20445;-69
2022/09/03 02:27:57;;;;;;;2.37;2.17;;;17.30;99.90;;;;;;5030279;28;20912;-69
2022/09/03 02:30:26;;;;;;;3.00;1.97;;;17.20;99.90;;;;;;5033287;28;20447;-70
2022/09/03 02:32:53;;;;;;;2.40;2.20;;;17.20;99.90;;;;;;5032654;28;21004;-69
2022/09/03 02:35:20;;;;;;;2.50;2.30;;;17.20;99.90;;;;;;5033409;28;20471;-68
2022/09/03 02:37:46;;;;;;;2.33;2.13;;;17.20;99.90;;;;;;5033098;28;20443;-69
2022/09/03 02:40:13;;;;;;;3.10;2.00;;;17.20;99.90;;;;;;5032991;28;20483;-70
2022/09/03 02:42:40;;;;;;;2.30;2.10;;;17.20;99.90;;;;;;5032310;28;20465;-68
2022/09/03 02:45:17;;;;;;;3.00;2.30;;;17.20;99.90;;;;;;5033105;28;20445;-69
2022/09/03 02:47:49;;;;;;;2.40;2.20;;;17.20;99.90;;;;;;5032796;28;20479;-69
2022/09/03 02:50:16;;;;;;;2.50;2.30;;;17.10;99.90;;;;;;5033005;28;20441;-69
2022/09/03 02:52:43;;;;;;;2.10;2.00;;;17.00;99.90;;;;;;5032360;28;20449;-69
2022/09/03 02:55:10;;;;;;;3.90;2.03;;;16.80;99.90;;;;;;5032453;28;20950;-69
2022/09/03 02:57:37;;;;;;;2.53;2.33;;;16.70;99.90;;;;;;5032747;28;20449;-69
2022/09/03 03:00:05;;;;;;;2.70;2.50;;;16.60;99.90;;;;;;5032554;28;20476;-69
2022/09/03 03:02:31;;;;;;;2.33;2.13;;;16.60;99.90;;;;;;5032257;28;20448;-69
2022/09/03 03:05:00;;;;;;;1.90;1.80;;;16.50;99.90;;;;;;5032623;28;21004;-70
2022/09/03 03:07:29;;;;;;;3.93;2.27;;;16.60;99.90;;;;;;5032547;28;20805;-69
2022/09/03 03:09:57;;;;;;;2.33;2.13;;;16.50;99.90;;;;;;5032277;28;20437;-69
2022/09/03 03:12:24;;;;;;;2.77;1.87;;;16.50;99.90;;;;;;5032235;28;20441;-70
2022/09/03 03:14:50;;;;;;;2.37;2.17;;;16.50;99.90;;;;;;5032036;28;20971;-70
2022/09/03 03:17:17;;;;;;;2.50;2.30;;;16.40;99.90;;;;;;5032361;28;20451;-69
2022/09/03 03:19:44;;;;;;;2.37;2.17;;;16.40;99.90;;;;;;5032301;28;20476;-69
2022/09/03 03:22:12;;;;;;;2.37;2.27;;;16.30;99.90;;;;;;5031808;28;20441;-69
2022/09/03 03:24:39;;;;;;;5.10;2.00;;;16.30;99.90;;;;;;5032341;28;20470;-69
2022/09/03 03:27:09;;;;;;;3.30;1.93;;;16.20;99.90;;;;;;5032220;28;20452;-70
2022/09/03 03:29:36;;;;;;;2.07;1.80;;;16.20;99.90;;;;;;5032026;28;20943;-69
2022/09/03 03:32:03;;;;;;;2.03;1.63;;;16.20;99.90;;;;;;5032098;28;20536;-69
2022/09/03 03:34:30;;;;;;;2.13;2.03;;;16.30;99.90;;;;;;5032036;28;20467;-69
2022/09/03 03:36:56;;;;;;;2.90;2.20;;;16.40;99.90;;;;;;5031797;28;20437;-69
2022/09/03 03:39:25;;;;;;;2.33;2.13;;;16.40;99.90;;;;;;5031511;28;20456;-69
2022/09/03 03:41:52;;;;;;;3.07;2.27;;;16.40;99.90;;;;;;5031575;28;21101;-69
2022/09/03 03:44:19;;;;;;;2.20;2.00;;;16.40;99.90;;;;;;5032083;28;20461;-69
2022/09/03 03:46:46;;;;;;;2.77;2.40;;;16.40;99.90;;;;;;5032150;28;20441;-69
2022/09/03 03:49:13;;;;;;;2.50;2.30;;;16.40;99.90;;;;;;5032501;28;20445;-70
2022/09/03 03:51:40;;;;;;;2.77;2.13;;;16.40;99.90;;;;;;5032023;28;20449;-70
2022/09/03 03:54:07;;;;;;;2.33;2.13;;;16.40;99.90;;;;;;5032352;28;20469;-70
2022/09/03 03:56:35;;;;;;;2.63;2.43;;;16.40;99.90;;;;;;5032468;28;20436;-68
2022/09/03 03:59:03;;;;;;;2.30;2.10;;;16.40;99.90;;;;;;5032289;28;20451;-69
2022/09/03 04:01:30;;;;;;;2.57;2.03;;;16.40;99.90;;;;;;5031935;28;20488;-68
2022/09/03 04:03:58;;;;;;;2.70;2.20;;;16.40;99.90;;;;;;5031338;28;20457;-69
2022/09/03 04:06:26;;;;;;;1.90;1.80;;;16.40;99.90;;;;;;5032081;28;20475;-70
2022/09/03 04:08:53;;;;;;;2.57;2.37;;;16.50;99.90;;;;;;5031750;28;20440;-69
2022/09/03 04:11:22;;;;;;;4.50;2.30;;;16.50;99.90;;;;;;5031526;28;20876;-70
2022/09/03 04:13:51;;;;;;;2.70;2.50;;;16.50;99.90;;;;;;5030833;28;20461;-70
2022/09/03 04:16:20;;;;;;;2.10;1.90;;;16.60;99.90;;;;;;5031194;28;20945;-68
2022/09/03 04:18:48;;;;;;;2.37;2.23;;;16.60;99.90;;;;;;5031135;28;20437;-69
2022/09/03 04:21:17;;;;;;;2.23;2.03;;;16.60;99.90;;;;;;5031140;28;21009;-68
2022/09/03 04:23:45;;;;;;;3.80;2.30;;;16.60;99.90;;;;;;5030822;28;20461;-70
2022/09/03 04:26:14;;;;;;;2.40;2.20;;;16.60;99.90;;;;;;5031153;28;20467;-69
2022/09/03 04:28:41;;;;;;;3.47;2.43;;;16.60;99.90;;;;;;5030885;28;20463;-69
2022/09/03 04:31:11;;;;;;;3.33;2.27;;;16.60;99.90;;;;;;5030691;28;20495;-69
2022/09/03 04:33:38;;;;;;;2.50;2.30;;;16.70;99.90;;;;;;5030477;28;20471;-69
2022/09/03 04:36:07;;;;;;;2.10;1.90;;;16.70;99.90;;;;;;5030883;28;20440;-69
2022/09/03 04:38:36;;;;;;;3.57;2.30;;;16.70;99.90;;;;;;5030746;28;20520;-69
2022/09/03 04:41:03;;;;;;;3.00;2.80;;;16.70;99.90;;;;;;5030609;28;20610;-70
2022/09/03 04:43:30;;;;;;;3.40;2.17;;;16.70;99.90;;;;;;5029961;28;20966;-69
2022/09/03 04:45:59;;;;;;;2.33;2.10;;;16.70;99.90;;;;;;5030610;28;20918;-69
2022/09/03 04:48:28;;;;;;;2.53;1.77;;;16.70;99.90;;;;;;5030493;28;20437;-70
2022/09/03 04:50:55;;;;;;;4.13;2.50;;;16.70;99.90;;;;;;5029897;28;20438;-69
2022/09/03 04:53:22;;;;;;;3.03;2.13;;;16.70;99.90;;;;;;5029780;28;20885;-69
2022/09/03 04:55:49;;;;;;;2.40;2.20;;;16.70;99.90;;;;;;5030171;28;20444;-70
2022/09/03 04:58:17;;;;;;;2.60;2.40;;;16.70;99.90;;;;;;5030196;28;20453;-69
2022/09/03 05:00:43;;;;;;;2.47;2.33;;;16.70;99.90;;;;;;5030176;28;20851;-69
2022/09/03 05:03:10;;;;;;;2.63;2.43;;;16.70;99.90;;;;;;5030030;28;20831;-70
2022/09/03 05:05:38;;;;;;;2.43;2.23;;;16.80;99.90;;;;;;5030217;28;20437;-68
2022/09/03 05:08:06;;;;;;;3.47;2.47;;;16.70;99.90;;;;;;5030236;28;20436;-69
2022/09/03 05:10:33;;;;;;;3.27;2.40;;;16.80;99.90;;;;;;5030166;28;20444;-70
2022/09/03 05:13:01;;;;;;;2.20;2.00;;;16.80;99.90;;;;;;5029667;28;20456;-69
2022/09/03 05:15:28;;;;;;;2.63;2.43;;;16.90;99.90;;;;;;5030214;28;20449;-70
2022/09/03 05:18:00;;;;;;;3.13;2.60;;;17.00;99.90;;;;;;5030431;28;20445;-70
2022/09/03 05:20:28;;;;;;;3.17;2.83;;;17.00;99.90;;;;;;5030080;28;20534;-69
2022/09/03 05:22:57;;;;;;;3.40;2.70;;;17.20;99.90;;;;;;5029614;28;20465;-69
2022/09/03 05:25:24;;;;;;;2.93;2.73;;;17.30;99.90;;;;;;5030174;28;20455;-69
2022/09/03 05:27:53;;;;;;;2.60;2.40;;;17.30;99.90;;;;;;5030028;28;20440;-68
2022/09/03 05:30:21;;;;;;;2.17;1.80;;;17.30;99.90;;;;;;5030116;28;20448;-68
2022/09/03 05:32:48;;;;;;;3.17;2.60;;;17.30;99.90;;;;;;5029744;28;20990;-68
2022/09/03 05:35:15;;;;;;;3.07;2.87;;;17.30;99.90;;;;;;5029968;28;20447;-69
2022/09/03 05:37:42;;;;;;;4.03;2.63;;;17.20;99.90;;;;;;5029700;28;20444;-69
2022/09/03 05:40:11;;;;;;;4.20;2.50;;;17.20;99.90;;;;;;5030219;28;20472;-69
2022/09/03 05:42:38;;;;;;;3.77;3.00;;;17.20;99.90;;;;;;5029753;28;20445;-69
2022/09/03 05:45:09;;;;;;;2.60;2.40;;;17.30;99.90;;;;;;5030099;28;20455;-69
2022/09/03 05:47:38;;;;;;;2.63;2.43;;;17.40;99.90;;;;;;5029894;28;20460;-69
2022/09/03 05:50:06;;;;;;;2.50;2.30;;;17.50;99.90;;;;;;5029887;28;20862;-69
2022/09/03 05:52:33;;;;;;;3.23;3.03;;;17.50;99.90;;;;;;5029446;28;20453;-69
2022/09/03 05:55:00;;;;;;;2.50;2.30;;;17.40;99.90;;;;;;5029763;28;20451;-70
2022/09/03 05:57:28;;;;;;;2.97;2.67;;;17.50;99.90;;;;;;5029588;28;20981;-70
2022/09/03 05:59:55;;;;;;;3.97;2.63;;;17.50;99.90;;;;;;5029537;28;20494;-69
2022/09/03 06:02:22;;;;;;;2.80;2.60;;;17.50;99.90;;;;;;5029348;28;20444;-69
2022/09/03 06:04:49;;;;;;;2.83;2.40;;;17.50;99.90;;;;;;5033300;28;20542;-69
2022/09/03 06:07:16;;;;;;;4.03;2.60;;;17.50;99.90;;;;;;5033761;28;20452;-69
2022/09/03 06:09:43;;;;;;;4.53;2.80;;;17.60;99.90;;;;;;5033427;28;20815;-69
2022/09/03 06:12:10;;;;;;;4.73;2.73;;;17.80;99.90;;;;;;5033257;28;20482;-69
2022/09/03 06:14:38;;;;;;;3.30;2.33;;;17.90;99.90;;;;;;5033385;28;20452;-69
2022/09/03 06:17:05;;;;;;;4.20;2.50;;;18.10;99.90;;;;;;5033183;28;20452;-69
2022/09/03 06:19:31;;;;;;;4.03;2.43;;;18.20;99.90;;;;;;5032973;28;20450;-69
2022/09/03 06:21:58;;;;;;;3.90;2.60;;;18.20;99.90;;;;;;5032814;28;20480;-69
2022/09/03 06:24:26;;;;;;;3.60;2.67;;;18.30;99.90;;;;;;5033164;28;20460;-69
2022/09/03 06:26:53;;;;;;;2.70;2.50;;;18.30;99.90;;;;;;5033334;28;20452;-68
2022/09/03 06:29:19;;;;;;;2.93;2.63;;;18.40;99.90;;;;;;5033208;28;20448;-69
2022/09/03 06:31:49;;;;;;;2.60;2.40;;;18.40;99.90;;;;;;5032566;28;20444;-70
2022/09/03 06:34:17;;;;;;;3.83;3.33;;;18.50;99.90;;;;;;5033195;28;20472;-69
2022/09/03 06:36:45;;;;;;;2.63;2.43;;;18.60;99.90;;;;;;5032802;28;20452;-69
2022/09/03 06:39:11;;;;;;;3.20;2.63;;;18.70;99.90;;;;;;5033143;28;20444;-70
2022/09/03 06:41:38;;;;;;;3.30;2.60;;;18.80;99.90;;;;;;5032504;28;21042;-68
2022/09/03 06:44:10;;;;;;;3.27;2.97;;;19.00;99.90;;;;;;5032540;28;20471;-70
2022/09/03 06:46:41;;;;;;;3.17;2.83;;;19.10;99.90;;;;;;5032653;28;20890;-70
2022/09/03 06:49:09;;;;;;;2.33;2.13;;;19.20;99.90;;;;;;5033025;28;20461;-69
2022/09/03 06:51:37;;;;;;;4.70;2.53;;;19.30;99.90;;;;;;5032700;28;20437;-67
2022/09/03 06:54:07;;;;;;;3.30;3.00;;;19.40;99.90;;;;;;5032529;28;20491;-69
2022/09/03 06:56:34;;;;;;;5.77;3.10;;;19.50;99.90;;;;;;5032481;28;20486;-68
2022/09/03 06:59:07;;;;;;;4.70;2.80;;;19.60;99.90;;;;;;5032461;28;20440;-68
2022/09/03 07:01:35;;;;;;;2.77;2.57;;;19.70;99.90;;;;;;5032899;28;20476;-68
2022/09/03 07:04:04;;;;;;;4.00;2.80;;;19.80;99.90;;;;;;5032204;28;20496;-69
2022/09/03 07:06:35;;;;;;;2.83;2.60;;;20.00;99.90;;;;;;5032575;28;20447;-68
2022/09/03 07:09:02;;;;;;;2.77;2.53;;;20.20;99.90;;;;;;5032614;28;20807;-69
2022/09/03 07:11:32;;;;;;;4.50;3.10;;;20.40;99.90;;;;;;5032559;28;20953;-67
2022/09/03 07:13:59;;;;;;;4.23;3.90;;;20.60;99.90;;;;;;5031623;28;20535;-68
2022/09/03 07:16:28;;;;;;;3.03;2.83;;;20.80;99.90;;;;;;5032134;28;20445;-68
2022/09/03 07:18:55;;;;;;;4.03;3.00;;;20.80;99.90;;;;;;5032234;28;20456;-68
2022/09/03 07:21:25;;;;;;;4.00;3.07;;;20.90;99.90;;;;;;5032282;28;20472;-68
2022/09/03 07:23:55;;;;;;;3.73;2.90;;;21.00;99.90;;;;;;5031631;28;20460;-68
2022/09/03 07:26:23;;;;;;;5.00;2.67;;;21.00;99.90;;;;;;5032676;28;20440;-67
2022/09/03 07:28:52;;;;;;;3.90;3.10;;;21.10;99.90;;;;;;5032087;28;20441;-70
2022/09/03 07:31:24;;;;;;;6.03;2.97;;;21.10;99.90;;;;;;5032224;28;20468;-69
2022/09/03 07:33:54;;;;;;;3.80;2.77;;;21.20;99.90;;;;;;5031824;28;20542;-67
2022/09/03 07:36:23;;;;;;;6.50;3.23;;;21.10;99.90;;;;;;5032143;28;20487;-66
2022/09/03 07:38:50;;;;;;;3.03;2.40;;;21.20;99.90;;;;;;5032382;28;20442;-67
2022/09/03 07:41:18;;;;;;;2.90;2.70;;;21.40;99.90;;;;;;5031858;28;20477;-67
2022/09/03 07:43:47;;;;;;;2.97;2.77;;;21.30;99.90;;;;;;5031716;28;20471;-69
2022/09/03 07:46:17;;;;;;;3.70;3.20;;;21.30;99.90;;;;;;5031776;28;20528;-68
2022/09/03 07:48:49;;;;;;;3.07;2.80;;;21.40;99.90;;;;;;5031731;28;20440;-68
2022/09/03 07:51:17;;;;;;;3.43;2.93;;;21.70;99.90;;;;;;5030814;28;20437;-68
2022/09/03 07:53:44;;;;;;;3.30;2.80;;;21.80;99.90;;;;;;5030289;28;20484;-68
2022/09/03 07:56:11;;;;;;;3.50;2.90;;;22.00;99.90;;;;;;5030370;28;20472;-68
2022/09/03 07:58:41;;;;;;;9.70;3.43;;;22.20;99.90;;;;;;5031817;28;20445;-67
2022/09/03 08:01:09;;;;;;;4.97;3.00;;;22.60;99.90;;;;;;5031211;28;20453;-68
2022/09/03 08:03:37;;;;;;;3.57;3.10;;;22.80;99.90;;;;;;5031127;28;20220;-67
2022/09/03 08:06:06;;;;;;;4.40;3.53;;;23.00;99.90;;;;;;5031660;28;20436;-67
2022/09/03 08:08:35;;;;;;;5.63;3.50;;;22.80;99.90;;;;;;5032111;28;20449;-68
2022/09/03 08:11:09;;;;;;;4.10;3.70;;;22.40;99.90;;;;;;5032729;28;20445;-68
2022/09/03 08:13:39;;;;;;;4.53;4.13;;;22.40;99.90;;;;;;5031287;28;20510;-67
2022/09/03 08:16:06;;;;;;;6.07;3.40;;;22.40;99.90;;;;;;5031716;28;20962;-68
2022/09/03 08:18:36;;;;;;;4.20;3.83;;;22.60;99.90;;;;;;5031752;28;20839;-68
2022/09/03 08:21:06;;;;;;;3.33;3.07;;;22.80;99.90;;;;;;5031069;28;21085;-68
2022/09/03 08:23:33;;;;;;;3.70;3.40;;;22.90;99.90;;;;;;5030344;28;21049;-68
2022/09/03 08:26:00;;;;;;;4.40;4.00;;;23.00;99.90;;;;;;5030862;28;20793;-68
2022/09/03 08:28:27;;;;;;;3.80;3.40;;;23.30;99.90;;;;;;5030708;28;20494;-67
2022/09/03 08:30:55;;;;;;;3.90;3.40;;;23.50;99.90;;;;;;5030950;28;20938;-67
2022/09/03 08:33:36;;;;;;;4.47;4.07;;;23.50;99.90;;;;;;5029752;28;20467;-66
2022/09/03 08:36:05;;;;;;;4.83;3.87;;;23.70;99.90;;;;;;5028842;28;20452;-66
2022/09/03 08:38:33;;;;;;;4.90;3.60;;;24.00;99.80;;;;;;5029099;28;20449;-68
2022/09/03 08:41:10;;;;;;;3.90;3.40;;;24.40;99.90;;;;;;5030100;28;20437;-68
2022/09/03 08:43:51;;;;;;;3.77;3.10;;;25.00;98.30;;;;;;5029853;28;20464;-67
2022/09/03 08:46:25;;;;;;;3.80;3.50;;;24.90;97.60;;;;;;5027805;28;20457;-67
2022/09/03 08:48:53;;;;;;;6.83;4.13;;;25.10;98.00;;;;;;5028630;28;20921;-67
2022/09/03 08:51:26;;;;;;;4.50;4.10;;;24.70;97.80;;;;;;5028145;28;20524;-67
2022/09/03 08:53:56;;;;;;;3.90;3.60;;;24.50;98.30;;;;;;5028190;28;20492;-67
2022/09/03 08:56:27;;;;;;;3.83;3.50;;;24.40;98.60;;;;;;5028810;28;20483;-67
2022/09/03 08:58:55;;;;;;;4.57;3.37;;;24.40;98.40;;;;;;5028609;28;20449;-67
2022/09/03 09:01:34;;;;;;;4.23;3.67;;;24.80;98.70;;;;;;5028292;28;20512;-68
2022/09/03 09:04:11;;;;;;;5.63;3.57;;;24.90;97.70;;;;;;5029691;28;20452;-67
2022/09/03 09:06:46;;;;;;;4.50;4.00;;;24.50;97.70;;;;;;5030347;28;20469;-67
2022/09/03 09:09:24;;;;;;;4.60;3.43;;;24.00;98.50;;;;;;5030542;28;20535;-67
2022/09/03 09:12:01;;;;;;;5.47;4.97;;;23.50;99.90;;;;;;5029933;28;20449;-68
2022/09/03 09:14:35;;;;;;;5.43;4.93;;;23.20;99.90;;;;;;5030087;28;20469;-67
2022/09/03 09:17:17;;;;;;;7.67;4.70;;;23.10;99.90;;;;;;5030502;28;20445;-67
2022/09/03 09:19:59;;;;;;;4.00;3.70;;;23.00;99.90;;;;;;5030554;28;20463;-67
2022/09/03 09:22:31;;;;;;;4.40;4.00;;;22.90;99.90;;;;;;5030002;28;20504;-67
2022/09/03 09:25:03;;;;;;;5.47;4.97;;;22.80;99.90;;;;;;5030384;28;20549;-67
2022/09/03 09:27:30;;;;;;;4.83;4.37;;;22.50;99.90;;;;;;5030381;28;20472;-67
2022/09/03 09:30:01;;;;;;;5.53;5.03;;;22.60;99.90;;;;;;5030069;28;20482;-67
2022/09/03 09:32:30;;;;;;;5.40;4.90;;;22.70;99.90;;;;;;5029984;28;20830;-67
2022/09/03 09:34:57;;;;;;;5.00;4.33;;;22.70;99.90;;;;;;5030062;28;20460;-67
2022/09/03 09:37:24;;;;;;;4.80;4.40;;;23.00;99.90;;;;;;5029101;28;20984;-68
2022/09/03 09:39:56;;;;;;;6.23;4.80;;;23.10;99.90;;;;;;5029877;28;20890;-67
2022/09/03 09:42:24;;;;;;;5.17;4.73;;;23.30;99.90;;;;;;5029780;28;20483;-67
2022/09/03 09:44:51;;;;;;;5.27;4.87;;;24.00;99.70;;;;;;5030774;28;20564;-68
2022/09/03 09:47:24;;;;;;;5.80;4.70;;;24.30;99.30;;;;;;5029968;28;20530;-67
2022/09/03 09:49:59;;;;;;;5.80;4.20;;;24.60;98.70;;;;;;5029641;28;20433;-68
2022/09/03 09:52:29;;;;;;;4.80;4.30;;;25.10;97.50;;;;;;5029266;28;20540;-68
2022/09/03 09:55:08;;;;;;;4.07;3.73;;;25.10;96.70;;;;;;5029691;28;20872;-69
2022/09/03 09:57:39;;;;;;;7.33;4.97;;;25.10;96.90;;;;;;5029889;28;20456;-69
2022/09/03 10:00:09;;;;;;;4.97;4.53;;;25.10;97.00;;;;;;5029952;28;20441;-69
2022/09/03 10:02:39;;;;;;;4.53;4.10;;;24.70;96.70;;;;;;5029521;28;20484;-68
2022/09/03 10:05:16;;;;;;;4.33;3.93;;;24.40;96.90;;;;;;5030176;28;20515;-69
2022/09/03 10:07:43;;;;;;;4.20;3.90;;;24.00;97.80;;;;;;5029658;28;20446;-69
2022/09/03 10:10:18;;;;;;;4.07;3.77;;;23.80;97.80;;;;;;5029804;28;20457;-67
2022/09/03 10:12:49;;;;;;;5.83;4.30;;;23.40;98.40;;;;;;5028933;28;20445;-68
2022/09/03 10:15:25;;;;;;;4.70;4.37;;;23.20;99.20;;;;;;5029808;28;20456;-68
2022/09/03 10:18:04;;;;;;;4.47;4.07;;;23.00;99.40;;;;;;5029332;28;20452;-65
2022/09/03 10:20:43;;;;;;;4.47;4.03;;;22.90;99.40;;;;;;5029482;28;20512;-68
2022/09/03 10:23:18;;;;;;;4.40;3.60;;;22.90;99.90;;;;;;5028747;28;20571;-69
2022/09/03 10:25:59;;;;;;;3.97;3.67;;;23.00;99.90;;;;;;5029602;28;20449;-68
2022/09/03 10:28:29;;;;;;;4.80;4.07;;;23.10;99.70;;;;;;5029572;28;20526;-70
2022/09/03 10:31:27;;;;;;;3.70;3.40;;;23.20;99.40;;;;;;5029334;28;20445;-69
2022/09/03 10:34:00;;;;;;;4.87;4.30;;;23.30;99.50;;;;;;5029356;28;20511;-67
2022/09/03 10:36:34;;;;;;;5.13;3.67;;;23.80;98.80;;;;;;5029549;28;20484;-69
2022/09/03 10:39:05;;;;;;;4.10;3.40;;;23.60;98.60;;;;;;5029239;28;20480;-69
2022/09/03 10:41:46;;;;;;;10.73;4.13;;;23.80;98.90;;;;;;5029231;28;20455;-69
2022/09/03 10:44:25;;;;;;;9.07;4.43;;;24.70;98.40;;;;;;5029286;28;20503;-69
2022/09/03 10:47:01;;;;;;;4.43;3.87;;;25.80;96.50;;;;;;5029181;28;20438;-69
2022/09/03 10:49:47;;;;;;;3.83;3.53;;;26.10;95.40;;;;;;5031194;28;20453;-69
2022/09/03 10:52:22;;;;;;;3.60;3.33;;;26.30;94.60;;;;;;5032544;28;20510;-68
2022/09/03 10:54:59;;;;;;;3.87;3.57;;;26.70;93.40;;;;;;5032835;28;20488;-69
2022/09/03 10:57:38;;;;;;;3.83;3.50;;;27.10;92.50;;;;;;5032693;28;20445;-67
2022/09/03 11:00:09;;;;;;;4.30;4.00;;;27.20;92.90;;;;;;5032826;28;20460;-66
2022/09/03 11:02:54;;;;;;;3.97;3.60;;;27.50;91.40;;;;;;5031941;28;20583;-66
2022/09/03 11:05:23;;;;;;;2.80;2.60;;;27.30;91.70;;;;;;5032520;28;20441;-67
2022/09/03 11:07:57;;;;;;;21.90;5.10;;;27.60;92.10;;;;;;5032500;28;20494;-68
2022/09/03 11:10:28;;;;;;;4.60;3.37;;;27.90;92.50;;;;;;5032573;28;20437;-67
2022/09/03 11:13:04;;;;;;;4.10;3.70;;;27.80;91.60;;;;;;5032376;28;20501;-67
2022/09/03 11:15:35;;;;;;;3.93;3.60;;;28.30;91.00;;;;;;5032945;28;20460;-67
2022/09/03 11:18:12;;;;;;;4.70;3.53;;;28.20;89.40;;;;;;5032753;28;20831;-67
2022/09/03 11:20:41;;;;;;;3.40;3.10;;;27.20;90.80;;;;;;5032595;28;20491;-67
2022/09/03 11:23:12;;;;;;;4.00;3.60;;;27.00;92.50;;;;;;5031770;28;20990;-67
2022/09/03 11:25:44;;;;;;;3.93;3.00;;;27.20;92.90;;;;;;5032051;28;20866;-67
2022/09/03 11:28:20;;;;;;;5.97;3.40;;;27.30;92.50;;;;;;5032365;28;20453;-68
2022/09/03 11:31:12;;;;;;;9.57;4.20;;;27.10;92.50;;;;;;5032242;28;20457;-67
2022/09/03 11:33:44;;;;;;;4.00;3.70;;;27.20;92.90;;;;;;5031618;28;20453;-67
2022/09/03 11:36:12;;;;;;;5.27;3.90;;;27.30;92.40;;;;;;5032405;28;20834;-66
2022/09/03 11:38:41;;;;;;;3.73;3.43;;;27.00;91.50;;;;;;5032053;28;21021;-67
2022/09/03 11:41:14;;;;;;;4.87;3.80;;;26.80;92.60;;;;;;5032100;28;20468;-67
2022/09/03 11:43:42;;;;;;;4.23;3.93;;;26.70;92.90;;;;;;5031621;28;20507;-68
2022/09/03 11:46:13;;;;;;;6.13;3.77;;;26.40;92.90;;;;;;5031840;28;20477;-68
2022/09/03 11:48:43;;;;;;;4.13;3.73;;;26.30;93.10;;;;;;5031574;28;20452;-67
2022/09/03 11:51:30;;;;;;;4.97;4.47;;;26.10;94.30;;;;;;5031981;28;20455;-65
2022/09/03 11:54:00;;;;;;;4.33;3.93;;;25.90;94.50;;;;;;5031361;28;20481;-65
2022/09/03 11:56:28;;;;;;;6.13;4.40;;;26.10;94.80;;;;;;5032151;28;20499;-68
2022/09/03 11:59:05;;;;;;;4.50;4.10;;;26.10;93.80;;;;;;5031637;28;20449;-67
2022/09/03 12:01:35;;;;;;;4.10;3.80;;;25.80;94.30;;;;;;5031055;28;20480;-67
2022/09/03 12:04:04;;;;;;;5.37;3.83;;;25.40;94.80;;;;;;5030922;28;21041;-68
2022/09/03 12:06:57;;;;;;;4.73;4.33;;;25.20;95.40;;;;;;5032185;28;20467;-66
2022/09/03 12:09:50;;;;;;;4.40;4.00;;;24.80;97.00;;;;;;5031405;28;20485;-67
2022/09/03 12:12:32;;;;;;;4.53;4.13;;;24.60;97.20;;;;;;5031114;28;20437;-67
2022/09/03 12:15:08;;;;;;;4.63;4.23;;;24.20;97.40;;;;;;5031278;28;20495;-66
2022/09/03 12:17:44;;;;;;;10.10;4.33;;;24.00;98.60;;;;;;5031184;28;20531;-68
2022/09/03 12:20:13;;;;;;;7.30;4.17;;;23.90;99.20;;;;;;5031140;28;20487;-67
2022/09/03 12:22:41;;;;;;;5.97;4.77;;;23.90;99.80;;;;;;5030947;28;20512;-66
2022/09/03 12:25:11;;;;;;;7.00;4.23;;;23.70;99.30;;;;;;5031238;28;20455;-67
2022/09/03 12:27:38;;;;;;;5.63;4.37;;;23.60;99.70;;;;;;5031016;28;20499;-67
2022/09/03 12:30:14;;;;;;;4.67;3.83;;;23.50;99.20;;;;;;5030790;28;20907;-67
2022/09/03 12:32:42;;;;;;;5.50;4.00;;;23.40;99.90;;;;;;5030582;28;20561;-67
2022/09/03 12:35:14;;;;;;;4.60;4.20;;;23.30;99.90;;;;;;5031034;28;20998;-67
2022/09/03 12:37:44;;;;;;;11.67;6.10;;;23.20;99.90;;;;;;5030953;28;20449;-66
2022/09/03 12:40:21;;;;;;;4.93;4.47;;;23.00;99.90;;;;;;5030799;28;20445;-67
2022/09/03 12:42:48;;;;;;;4.90;4.47;;;22.90;99.90;;;;;;5030040;28;20492;-68
2022/09/03 12:45:19;;;;;;;5.60;5.20;;;22.80;99.90;;;;;;5030792;28;20464;-67
2022/09/03 12:47:46;;;;;;;5.73;5.23;;;22.70;99.90;;;;;;5030801;28;20548;-67
2022/09/03 12:50:16;;;;;;;5.63;4.93;;;22.50;99.90;;;;;;5030732;28;20543;-68
2022/09/03 12:52:46;;;;;;;4.90;4.47;;;22.30;99.90;;;;;;5030497;28;21005;-68
2022/09/03 12:55:33;;;;;;;4.37;3.97;;;21.90;99.90;;;;;;5030238;28;20997;-67
2022/09/03 12:58:05;;;;;;;7.30;4.80;;;21.40;99.90;;;;;;5030678;28;21030;-66
2022/09/03 13:00:36;;;;;;;6.40;4.80;;;20.90;99.90;;;;;;5030747;28;20492;-67
2022/09/03 13:03:07;;;;;;;4.10;3.80;;;20.30;99.90;;;;;;5030030;28;20511;-68
2022/09/03 13:05:36;;;;;;;7.00;3.70;;;19.90;99.90;;;;;;5030492;28;20480;-67